Latest Coastal Weather Observations for Eucla

IDW60701

Issued at 7:43 am WST Tuesday 22 August 2017 (issued every 10 minutes, with the page automatically refreshed every 10 minutes)

About coastal observations | Map of coastal stations | Coastal observations for WA | Marine services | Other Formats
Station Details ID: 011003 Name: EUCLA Lat: -31.68 Lon: 128.90 Height: 93.1 m
Data from the previous 72 hours. | See also: Recent months at Eucla
Date/Time
WST
Temp
°C
Wind Pressure Rain since
9am
mm
Weather Cloud Vis
km
Sea
Height
m
Swell
Dir  Spd
kts
Gust
kts
hPa Trend Height
m
Period
s
Dir
22/07:30am 11.3 N 10 14 1022.8 - 0.0 - - - - - - -
22/07:00am 8.6 N 9 13 1022.3 - 0.0 - - - - - - -
22/06:30am 7.0 N 9 14 1022.0 - 0.0 - - - - - - -
22/06:00am 5.9 N 9 11 1022.0 - 0.0 - - - - - - -
22/05:30am 5.8 N 8 12 1021.9 - 0.0 - - - - - - -
22/05:00am 6.1 NNE 8 10 1021.8 - 0.0 - - - - - - -
22/04:30am 5.6 N 8 9 1021.8 - 0.0 - - - - - - -
22/04:00am 5.6 N 8 10 1021.7 - 0.0 - - - - - - -
22/03:30am 6.0 N 8 10 1021.5 - 0.0 - - - - - - -
22/03:00am 6.1 NNE 8 9 1021.1 - 0.0 - - - - - - -
22/02:30am 6.0 NNE 8 9 1021.1 - 0.0 - - - - - - -
22/02:00am 6.0 NNE 8 10 1021.4 - 0.0 - - - - - - -
22/01:30am 5.9 NNE 8 9 1021.5 - 0.0 - - - - - - -
22/01:00am 6.2 NNE 7 8 1021.8 - 0.0 - - - - - - -
22/12:30am 6.6 NNE 6 7 1021.9 - 0.0 - - - - - - -
22/12:00am 6.9 NNE 6 7 1022.0 - 0.0 - - - - - - -
 
Date/Time
WST
Temp
°C
Wind Pressure Rain since
9am
mm
Weather Cloud Vis
km
Sea
Height
m
Swell
Dir  Spd
kts
Gust
kts
hPa Trend Height
m
Period
s
Dir
21/11:30pm 7.2 NNE 6 6 1022.1 - 0.0 - - - - - - -
21/11:00pm 7.5 NE 6 6 1022.3 - 0.0 - - - - - - -
21/10:30pm 7.8 NE 5 6 1022.3 - 0.0 - - - - - - -
21/10:00pm 7.7 NE 5 6 1022.4 - 0.0 - - - - - - -
21/09:30pm 8.5 NE 6 7 1022.3 - 0.0 - - - - - - -
21/09:00pm 9.2 NE 6 7 1022.5 - 0.0 - - - - - - -
21/08:30pm 9.5 ENE 6 7 1022.4 - 0.0 - - - - - - -
21/08:00pm 9.9 ENE 6 7 1022.4 - 0.0 - - - - - - -
21/07:30pm 10.0 ENE 6 7 1022.4 - 0.0 - - - - - - -
21/07:00pm 10.0 E 6 7 1022.3 - 0.0 - - - - - - -
21/06:30pm 10.2 E 6 6 1022.3 - 0.0 - - - - - - -
21/06:00pm 10.4 E 6 6 1022.2 - 0.0 - - - - - - -
21/05:30pm 10.8 E 5 6 1022.1 - 0.0 - - - - - - -
21/05:00pm 12.5 ESE 4 4 1022.1 - 0.0 - - - - - - -
21/04:30pm 14.1 SE 5 7 1021.7 - 0.0 - - - - - - -
21/04:00pm 15.0 SSE 5 6 1021.4 - 0.0 - - - - - - -
21/03:30pm 15.6 SSE 6 9 1021.2 - 0.0 - - - - - - -
21/03:00pm 16.0 S 7 10 1021.0 - 0.0 Fine Mostly clear 40 - - - -
21/02:30pm 16.2 SSE 7 12 1020.9 - 0.0 - - - - - - -
21/02:00pm 16.9 S 8 13 1021.0 - 0.0 - - - - - - -
21/01:30pm 16.8 S 7 10 1021.3 - 0.0 - - - - - - -
21/01:00pm 16.2 S 8 12 1021.4 - 0.0 - - - - - - -
21/12:30pm 17.0 SSW 9 12 1021.7 - 0.0 - - - - - - -
21/12:00pm 15.9 S 7 13 1022.0 - 0.0 - - - - - - -
21/11:30am 16.0 SSW 8 14 1022.4 - 0.0 - - - - - - -
21/11:00am 15.2 S 8 12 1022.7 - 0.0 - - - - - - -
21/10:30am 15.4 SSW 9 15 1022.7 - 0.0 - - - - - - -
21/10:00am 15.3 SSW 9 14 1022.7 - 0.0 - - - - - - -
21/09:30am 15.7 SSW 10 16 1022.4 - 0.0 - - - - - - -
21/09:00am 15.6 SW 10 15 1022.2 - 0.0 Distant precip. Mostly cloudy 15 - - - -
21/08:30am 14.8 SSW 9 14 1022.1 - 0.0 - - - - - - -
21/08:00am 14.0 S 10 16 1021.9 - 0.0 - - - - - - -
21/07:30am 13.8 SW 9 17 1021.6 - 0.0 - - - - - - -
21/07:00am 13.6 SW 7 11 1021.2 - 0.0 - - - - - - -
21/06:30am 13.1 SW 7 10 1020.6 - 0.0 - - - - - - -
21/06:00am 13.0 SSW 9 14 1020.2 - 0.0 - - - - - - -
21/05:30am 12.5 SW 7 10 1019.8 - 0.0 - - - - - - -
21/05:00am 13.1 SSW 9 14 1019.3 - 0.0 - - - - - - -
21/04:30am 13.0 SSW 8 12 1018.8 - 0.0 - - - - - - -
21/04:00am 12.9 SW 7 10 1018.4 - 0.0 - - - - - - -
21/03:30am 13.0 SW 9 16 1018.1 - 0.0 - - - - - - -
21/03:00am 13.0 SSW 8 14 1017.9 - 0.0 - - - - - - -
21/02:30am 13.1 SW 9 14 1017.6 - 0.0 - - - - - - -
21/02:00am 12.6 SSW 10 18 1017.6 - 0.0 - - - - - - -
21/01:30am 12.5 SSW 9 14 1017.5 - 0.0 - - - - - - -
21/01:00am 13.0 SW 10 14 1017.3 - 0.0 - - - - - - -
21/12:30am 13.0 SW 11 16 1017.2 - 0.0 - - - - - - -
21/12:00am 13.5 SW 10 19 1017.0 - 0.0 - - - - - - -
 
Date/Time
WST
Temp
°C
Wind Pressure Rain since
9am
mm
Weather Cloud Vis
km
Sea
Height
m
Swell
Dir  Spd
kts
Gust
kts
hPa Trend Height
m
Period
s
Dir
20/11:30pm 13.5 SW 11 16 1017.0 - 0.0 - - - - - - -
20/11:00pm 13.4 SW 12 18 1016.9 - 0.0 - - - - - - -
20/10:30pm 13.2 SW 10 18 1016.9 - 0.0 - - - - - - -
20/10:00pm 12.4 WSW 10 15 1016.9 - 0.0 - - - - - - -
20/09:30pm 12.6 WSW 9 14 1016.6 - 0.0 - - - - - - -
20/09:00pm 12.7 WSW 9 14 1016.3 - 0.0 - - - - - - -
20/08:30pm 12.9 W 9 14 1016.2 - 0.0 - - - - - - -
20/08:00pm 13.2 WSW 9 14 1016.0 - 0.0 - - - - - - -
20/07:30pm 13.6 WSW 11 17 1015.5 - 0.0 - - - - - - -
20/07:00pm 13.9 WSW 11 19 1015.2 - 0.0 - - - - - - -
20/06:30pm 14.5 WSW 12 20 1014.8 - 0.0 - - - - - - -
20/06:00pm 14.3 W 15 22 1014.3 - 0.0 - - - - - - -
20/05:35pm 15.4 WSW 15 25 1013.6 - 0.0 - - - - - - -
20/05:30pm 15.6 WSW 12 24 1013.5 - 0.0 - - - - - - -
20/05:00pm 15.3 SW 10 15 1013.1 - 0.0 - - - - - - -
20/04:30pm 15.4 SW 9 14 1012.6 - 0.0 - - - - - - -
20/04:00pm 16.0 WSW 8 12 1012.1 - 0.0 - - - - - - -
20/03:30pm 15.8 SW 10 18 1011.6 - 0.0 - - - - - - -
20/03:00pm 17.9 W 13 22 1011.0 - 0.0 Drizzle Mostly cloudy 40 - - - -
20/02:30pm 17.7 W 15 23 1010.7 - 0.0 - - - - - - -
20/02:00pm 18.0 W 18 30 1010.5 - 0.0 - - - - - - -
20/01:37pm 18.5 W 18 28 1010.2 - 0.0 - - - - - - -
20/01:30pm 18.6 WNW 19 28 1010.1 - 0.0 - - - - - - -
20/01:00pm 19.5 W 19 31 1009.9 - 0.0 - - - - - - -
20/12:30pm 20.2 WNW 18 30 1009.7 - 0.0 - - - - - - -
20/12:00pm 19.9 WNW 21 32 1010.2 - 0.0 - - - - - - -
20/11:35am 20.0 WNW 18 28 1010.3 - 0.0 - - - - - - -
20/11:30am 20.1 WNW 19 28 1010.5 - 0.0 - - - - - - -
20/11:00am 19.1 WNW 17 31 1011.0 - 0.0 - - - - - - -
20/10:30am 18.7 WNW 18 28 1011.5 - 0.0 - - - - - - -
20/10:00am 18.2 WNW 16 26 1011.6 - 0.0 - - - - - - -
20/09:30am 17.3 WNW 16 28 1011.7 - 0.0 - - - - - - -
20/09:00am 16.9 WNW 17 28 1011.7 - 0.0 Fine Mostly clear 40 - - - -
20/08:56am 16.4 WNW 15 27 1011.7 - 0.0 - - - - - - -
20/08:30am 16.0 WNW 15 21 1011.7 - 0.0 - - - - - - -
20/08:00am 14.9 WNW 15 21 1011.7 - 0.0 - - - - - - -
20/07:30am 14.2 WNW 12 18 1011.6 - 0.0 - - - - - - -
20/07:00am 13.7 WNW 12 20 1011.3 - 0.0 - - - - - - -
20/06:30am 13.5 WNW 12 21 1010.9 - 0.0 - - - - - - -
20/06:00am 13.8 WNW 11 17 1009.9 - 0.0 - - - - - - -
20/05:30am 14.1 WNW 11 18 1009.7 - 0.0 - - - - - - -
20/05:00am 14.3 WNW 8 13 1009.5 - 0.0 - - - - - - -
20/04:30am 14.7 WNW 8 11 1008.9 - 0.0 - - - - - - -
20/04:00am 15.6 WNW 9 15 1009.0 - 0.0 - - - - - - -
20/03:30am 16.0 WNW 9 15 1008.8 - 0.0 - - - - - - -
20/03:00am 17.2 WNW 11 18 1008.4 - 0.0 - - - - - - -
20/02:30am 17.8 NNW 12 16 1008.0 - 0.0 - - - - - - -
20/02:00am 18.4 N 13 20 1007.3 - 0.0 - - - - - - -
20/01:30am 18.1 N 12 16 1007.7 - 0.0 - - - - - - -
20/01:00am 18.8 NNW 15 21 1008.3 - 0.0 - - - - - - -
20/12:48am 19.8 N 16 27 1008.9 - 0.0 - - - - - - -
20/12:30am 20.1 NNE 18 31 1006.8 - 0.0 - - - - - - -
20/12:04am 19.8 NNE 16 26 1007.0 - 0.0 - - - - - - -
20/12:00am 19.7 NNE 18 26 1007.1 - 0.0 - - - - - - -
 
Date/Time
WST
Temp
°C
Wind Pressure Rain since
9am
mm
Weather Cloud Vis
km
Sea
Height
m
Swell
Dir  Spd
kts
Gust
kts
hPa Trend Height
m
Period
s
Dir
19/11:48pm 19.6 NNE 17 27 1007.3 - 0.0 - - - - - - -
19/11:30pm 19.5 NNE 17 25 1007.6 - 0.0 - - - - - - -
19/11:00pm 19.3 NNE 19 29 1007.9 - 0.0 - - - - - - -
19/10:34pm 18.7 NNE 17 27 1008.4 - 0.0 - - - - - - -
19/10:30pm 18.7 NNE 17 26 1008.5 - 0.0 - - - - - - -
19/10:00pm 18.8 NNE 18 27 1009.2 - 0.0 - - - - - - -
19/09:30pm 18.9 NNE 17 27 1009.9 - 0.0 - - - - - - -
19/09:00pm 19.0 NNE 19 29 1010.3 - 0.0 - - - - - - -
19/08:30pm 19.6 NNE 19 29 1010.6 - 0.0 - - - - - - -
19/08:04pm 19.8 NE 20 30 1010.9 - 0.0 - - - - - - -
19/08:00pm 19.7 NE 19 28 1010.9 - 0.0 - - - - - - -
19/07:30pm 19.9 NE 17 25 1011.5 - 0.0 - - - - - - -
19/07:00pm 20.1 NE 15 24 1012.2 - 0.0 - - - - - - -
19/06:30pm 20.5 NE 11 17 1013.5 - 0.0 - - - - - - -
19/06:00pm 20.9 NE 11 17 1013.6 - 0.0 - - - - - - -
19/05:30pm 21.1 NE 12 20 1013.5 - 0.0 - - - - - - -
19/05:00pm 21.8 NE 10 15 1013.9 - 0.0 - - - - - - -
19/04:30pm 22.7 NE 11 17 1014.2 - 0.0 - - - - - - -
19/04:00pm 23.1 NE 12 19 1014.5 - 0.0 - - - - - - -
19/03:30pm 23.3 NE 13 18 1014.8 - 0.0 - - - - - - -
19/03:00pm 23.8 NE 13 20 1015.2 - 0.0 Fine Partly cloudy 40 - - - -
19/02:30pm 23.6 NE 14 22 1015.2 - 0.0 - - - - - - -
19/02:00pm 23.6 NE 15 28 1015.3 - 0.0 - - - - - - -
19/01:34pm 24.3 NE 15 25 1016.0 - 0.0 - - - - - - -
19/01:30pm 23.8 NE 15 22 1016.2 - 0.0 - - - - - - -
19/01:00pm 22.2 NE 13 21 1017.1 - 0.0 - - - - - - -
19/12:30pm 21.5 NE 15 21 1017.6 - 0.0 - - - - - - -
19/12:00pm 21.2 NNE 16 26 1018.1 - 0.0 - - - - - - -
19/11:30am 20.8 NNE 17 26 1019.4 - 0.0 - - - - - - -
19/11:01am 19.2 NNE 15 27 1019.9 - 0.0 - - - - - - -
19/11:00am 19.3 NNE 14 27 1020.0 - 0.0 - - - - - - -
19/10:30am 18.4 NNE 14 22 1021.2 - 0.0 - - - - - - -
19/10:29am 18.3 NNE 15 25 1021.3 - 0.0 - - - - - - -
19/10:00am 16.9 NNE 14 24 1021.6 - 0.0 - - - - - - -
19/09:30am 15.2 NNE 17 24 1022.0 - 0.0 - - - - - - -
19/09:00am 13.8 NNE 16 24 1022.3 - 0.0 Haze Mostly cloudy 20 - - - -
19/08:30am 13.0 NNE 17 26 1022.3 - 0.0 - - - - - - -
19/08:00am 11.8 NNE 15 27 1022.4 - 0.0 - - - - - - -
19/07:59am 11.7 NNE 16 27 1022.4 - 0.0 - - - - - - -

Other Formats:

Comma delimited format used in spreadsheet applications
http://www.bom.gov.au/fwo/IDW60701/IDW60701.94647.axf

JavaScript Object Notation format (JSON) in row-major order
http://www.bom.gov.au/fwo/IDW60701/IDW60701.94647.json